sensor_id;sensor_type;location;lat;lon;timestamp;pressure;altitude;pressure_sealevel;temperature;humidity
63808;BME280;49961;43.970;22.868;2023-03-03T00:00:06;101884.19;;;7.21;100.00
63808;BME280;49961;43.970;22.868;2023-03-03T00:01:07;101952.03;;;7.69;100.00
63808;BME280;49961;43.970;22.868;2023-03-03T00:02:07;101952.81;;;7.69;100.00
63808;BME280;49961;43.970;22.868;2023-03-03T00:03:09;101949.28;;;7.69;100.00
63808;BME280;49961;43.970;22.868;2023-03-03T00:04:11;101940.97;;;7.65;100.00
63808;BME280;49961;43.970;22.868;2023-03-03T00:05:12;101940.16;;;7.61;100.00
63808;BME280;49961;43.970;22.868;2023-03-03T00:06:14;101951.22;;;7.65;100.00
63808;BME280;49961;43.970;22.868;2023-03-03T00:07:15;101945.28;;;7.63;100.00
63808;BME280;49961;43.970;22.868;2023-03-03T00:08:21;101845.41;;;7.00;100.00
63808;BME280;49961;43.970;22.868;2023-03-03T00:09:22;101941.34;;;7.64;100.00
63808;BME280;49961;43.970;22.868;2023-03-03T00:10:22;101936.97;;;7.59;100.00
63808;BME280;49961;43.970;22.868;2023-03-03T00:11:23;101941.38;;;7.67;100.00
63808;BME280;49961;43.970;22.868;2023-03-03T00:12:26;101856.50;;;7.07;100.00
63808;BME280;49961;43.970;22.868;2023-03-03T00:13:29;101945.72;;;7.68;100.00
63808;BME280;49961;43.970;22.868;2023-03-03T00:14:32;101950.88;;;7.70;100.00
63808;BME280;49961;43.970;22.868;2023-03-03T00:15:32;101937.50;;;7.75;100.00
63808;BME280;49961;43.970;22.868;2023-03-03T00:16:39;101938.69;;;7.78;100.00
63808;BME280;49961;43.970;22.868;2023-03-03T00:17:39;101943.44;;;7.77;100.00
63808;BME280;49961;43.970;22.868;2023-03-03T00:18:45;101929.56;;;7.70;100.00
63808;BME280;49961;43.970;22.868;2023-03-03T00:19:46;101748.53;;;6.58;100.00
63808;BME280;49961;43.970;22.868;2023-03-03T00:20:56;101923.22;;;7.63;100.00
63808;BME280;49961;43.970;22.868;2023-03-03T00:21:57;101934.72;;;7.72;100.00
63808;BME280;49961;43.970;22.868;2023-03-03T00:23:12;101935.88;;;7.71;100.00
63808;BME280;49961;43.970;22.868;2023-03-03T00:24:21;101935.13;;;7.74;100.00
63808;BME280;49961;43.970;22.868;2023-03-03T00:26:37;101935.88;;;7.71;100.00
63808;BME280;49961;43.970;22.868;2023-03-03T00:27:37;101921.66;;;7.65;100.00
63808;BME280;49961;43.970;22.868;2023-03-03T00:28:49;101938.28;;;7.72;100.00
63808;BME280;49961;43.970;22.868;2023-03-03T00:29:52;101941.03;;;7.72;100.00
63808;BME280;49961;43.970;22.868;2023-03-03T00:30:57;101936.72;;;7.75;100.00
63808;BME280;49961;43.970;22.868;2023-03-03T00:34:27;101926.06;;;7.77;100.00
63808;BME280;49961;43.970;22.868;2023-03-03T00:35:33;101873.78;;;7.44;100.00
63808;BME280;49961;43.970;22.868;2023-03-03T00:36:38;101924.91;;;7.78;100.00
63808;BME280;49961;43.970;22.868;2023-03-03T00:37:40;101927.25;;;7.76;100.00
63808;BME280;49961;43.970;22.868;2023-03-03T00:38:42;101909.44;;;7.66;100.00
63808;BME280;49961;43.970;22.868;2023-03-03T00:39:42;101925.69;;;7.78;100.00
63808;BME280;49961;43.970;22.868;2023-03-03T00:40:44;101916.22;;;7.76;100.00
63808;BME280;49961;43.970;22.868;2023-03-03T00:41:44;101923.78;;;7.82;100.00
63808;BME280;49961;43.970;22.868;2023-03-03T00:42:48;101916.31;;;7.86;100.00
63808;BME280;49961;43.970;22.868;2023-03-03T00:43:51;101813.69;;;7.20;100.00
63808;BME280;49961;43.970;22.868;2023-03-03T00:44:58;101913.91;;;7.81;100.00
63808;BME280;49961;43.970;22.868;2023-03-03T00:45:59;101915.88;;;7.84;100.00
63808;BME280;49961;43.970;22.868;2023-03-03T00:47:15;101924.16;;;7.84;100.00
63808;BME280;49961;43.970;22.868;2023-03-03T00:48:26;101915.53;;;7.89;100.00
63808;BME280;49961;43.970;22.868;2023-03-03T00:49:27;101913.97;;;7.88;100.00
63808;BME280;49961;43.970;22.868;2023-03-03T00:50:33;101917.88;;;7.84;100.00
63808;BME280;49961;43.970;22.868;2023-03-03T00:51:33;101910.81;;;7.86;100.00
63808;BME280;49961;43.970;22.868;2023-03-03T00:52:46;101910.00;;;7.86;100.00
63808;BME280;49961;43.970;22.868;2023-03-03T00:53:50;101913.50;;;7.83;100.00
63808;BME280;49961;43.970;22.868;2023-03-03T00:54:51;101900.41;;;7.73;100.00
63808;BME280;49961;43.970;22.868;2023-03-03T00:55:52;101906.75;;;7.77;100.00
63808;BME280;49961;43.970;22.868;2023-03-03T00:56:53;101907.56;;;7.77;100.00
63808;BME280;49961;43.970;22.868;2023-03-03T00:57:53;101904.81;;;7.77;100.00
63808;BME280;49961;43.970;22.868;2023-03-03T00:58:53;101898.84;;;7.75;100.00
63808;BME280;49961;43.970;22.868;2023-03-03T00:59:54;101905.22;;;7.79;100.00
63808;BME280;49961;43.970;22.868;2023-03-03T01:00:55;101900.88;;;7.78;100.00
63808;BME280;49961;43.970;22.868;2023-03-03T01:01:55;101902.44;;;7.79;100.00
63808;BME280;49961;43.970;22.868;2023-03-03T01:02:58;101897.72;;;7.76;100.00
63808;BME280;49961;43.970;22.868;2023-03-03T01:04:01;101839.47;;;7.38;100.00
63808;BME280;49961;43.970;22.868;2023-03-03T01:05:01;101896.94;;;7.79;100.00
63808;BME280;49961;43.970;22.868;2023-03-03T01:06:02;101895.75;;;7.80;100.00
63808;BME280;49961;43.970;22.868;2023-03-03T01:07:02;101891.00;;;7.77;100.00
63808;BME280;49961;43.970;22.868;2023-03-03T01:08:03;101859.72;;;7.59;100.00
63808;BME280;49961;43.970;22.868;2023-03-03T01:09:04;101893.34;;;7.75;100.00
63808;BME280;49961;43.970;22.868;2023-03-03T01:10:05;101843.81;;;7.39;100.00
63808;BME280;49961;43.970;22.868;2023-03-03T01:11:12;101891.00;;;7.74;100.00
63808;BME280;49961;43.970;22.868;2023-03-03T01:12:15;101894.13;;;7.72;100.00
63808;BME280;49961;43.970;22.868;2023-03-03T01:13:17;101889.81;;;7.75;100.00
63808;BME280;49961;43.970;22.868;2023-03-03T01:14:18;101879.53;;;7.72;100.00
63808;BME280;49961;43.970;22.868;2023-03-03T01:15:18;101817.31;;;7.27;100.00
63808;BME280;49961;43.970;22.868;2023-03-03T01:16:19;101880.22;;;7.62;100.00
63808;BME280;49961;43.970;22.868;2023-03-03T01:17:20;101892.19;;;7.76;100.00
63808;BME280;49961;43.970;22.868;2023-03-03T01:18:21;101889.81;;;7.75;100.00
63808;BME280;49961;43.970;22.868;2023-03-03T01:19:21;101782.84;;;7.07;100.00
63808;BME280;49961;43.970;22.868;2023-03-03T01:20:22;101888.25;;;7.77;100.00
63808;BME280;49961;43.970;22.868;2023-03-03T01:21:22;101786.44;;;7.08;100.00
63808;BME280;49961;43.970;22.868;2023-03-03T01:22:23;101888.63;;;7.76;100.00
63808;BME280;49961;43.970;22.868;2023-03-03T01:23:23;101886.63;;;7.73;100.00
63808;BME280;49961;43.970;22.868;2023-03-03T01:24:24;101879.16;;;7.73;100.00
63808;BME280;49961;43.970;22.868;2023-03-03T01:25:24;101878.34;;;7.73;100.00
63808;BME280;49961;43.970;22.868;2023-03-03T01:26:25;101878.34;;;7.73;100.00
63808;BME280;49961;43.970;22.868;2023-03-03T01:27:25;101880.72;;;7.74;100.00
63808;BME280;49961;43.970;22.868;2023-03-03T01:28:27;101875.59;;;7.73;100.00
63808;BME280;49961;43.970;22.868;2023-03-03T01:29:28;101880.72;;;7.71;100.00
63808;BME280;49961;43.970;22.868;2023-03-03T01:30:29;101876.38;;;7.70;100.00
63808;BME280;49961;43.970;22.868;2023-03-03T01:31:30;101878.72;;;7.68;100.00
63808;BME280;49961;43.970;22.868;2023-03-03T01:32:30;101873.16;;;7.64;100.00
63808;BME280;49961;43.970;22.868;2023-03-03T01:33:32;101873.16;;;7.64;100.00
63808;BME280;49961;43.970;22.868;2023-03-03T01:34:32;101815.75;;;7.30;100.00
63808;BME280;49961;43.970;22.868;2023-03-03T01:35:33;101858.00;;;7.41;100.00
63808;BME280;49961;43.970;22.868;2023-03-03T01:36:35;101866.75;;;7.50;100.00
63808;BME280;49961;43.970;22.868;2023-03-03T01:37:36;101867.91;;;7.49;100.00
63808;BME280;49961;43.970;22.868;2023-03-03T01:38:37;101862.81;;;7.51;100.00
63808;BME280;49961;43.970;22.868;2023-03-03T01:39:38;101866.75;;;7.50;100.00
63808;BME280;49961;43.970;22.868;2023-03-03T01:40:39;101834.25;;;7.29;100.00
63808;BME280;49961;43.970;22.868;2023-03-03T01:41:40;101867.50;;;7.47;100.00
63808;BME280;49961;43.970;22.868;2023-03-03T01:42:40;101863.97;;;7.46;100.00
63808;BME280;49961;43.970;22.868;2023-03-03T01:43:45;101869.03;;;7.44;100.00
63808;BME280;49961;43.970;22.868;2023-03-03T01:44:46;101790.28;;;7.00;100.00
63808;BME280;49961;43.970;22.868;2023-03-03T01:48:30;101868.75;;;7.53;100.00
63808;BME280;49961;43.970;22.868;2023-03-03T01:49:56;101862.03;;;7.50;100.00
63808;BME280;49961;43.970;22.868;2023-03-03T01:51:31;101864.34;;;7.48;100.00
63808;BME280;49961;43.970;22.868;2023-03-03T01:53:42;101859.66;;;7.52;100.00
63808;BME280;49961;43.970;22.868;2023-03-03T01:54:49;101862.44;;;7.52;100.00
63808;BME280;49961;43.970;22.868;2023-03-03T01:55:52;101861.25;;;7.53;100.00
63808;BME280;49961;43.970;22.868;2023-03-03T01:56:56;101858.91;;;7.55;100.00
63808;BME280;49961;43.970;22.868;2023-03-03T01:58:13;101856.94;;;7.56;100.00
63808;BME280;49961;43.970;22.868;2023-03-03T01:59:17;101860.03;;;7.51;100.00
63808;BME280;49961;43.970;22.868;2023-03-03T02:00:19;101851.78;;;7.54;100.00
63808;BME280;49961;43.970;22.868;2023-03-03T02:01:23;101851.03;;;7.54;100.00
63808;BME280;49961;43.970;22.868;2023-03-03T02:02:26;101855.34;;;7.55;100.00
63808;BME280;49961;43.970;22.868;2023-03-03T02:03:28;101842.66;;;7.43;100.00
63808;BME280;49961;43.970;22.868;2023-03-03T02:04:29;101863.66;;;7.58;100.00
63808;BME280;49961;43.970;22.868;2023-03-03T02:05:29;101863.66;;;7.58;100.00
63808;BME280;49961;43.970;22.868;2023-03-03T02:06:34;101856.97;;;7.59;100.00
63808;BME280;49961;43.970;22.868;2023-03-03T02:07:37;101745.28;;;6.85;100.00
63808;BME280;49961;43.970;22.868;2023-03-03T02:09:06;101585.03;;;5.89;100.00
63808;BME280;49961;43.970;22.868;2023-03-03T02:10:11;101852.97;;;7.53;100.00
63808;BME280;49961;43.970;22.868;2023-03-03T02:11:14;101837.13;;;7.43;100.00
63808;BME280;49961;43.970;22.868;2023-03-03T02:12:17;101850.94;;;7.47;100.00
63808;BME280;49961;43.970;22.868;2023-03-03T02:13:19;101719.91;;;6.66;100.00
63808;BME280;49961;43.970;22.868;2023-03-03T02:14:19;101849.00;;;7.47;100.00
63808;BME280;49961;43.970;22.868;2023-03-03T02:15:28;101851.03;;;7.57;100.00
63808;BME280;49961;43.970;22.868;2023-03-03T02:16:31;101847.53;;;7.60;100.00
63808;BME280;49961;43.970;22.868;2023-03-03T02:17:31;101847.53;;;7.60;100.00
63808;BME280;49961;43.970;22.868;2023-03-03T02:18:32;101840.84;;;7.61;100.00
63808;BME280;49961;43.970;22.868;2023-03-03T02:19:49;101842.81;;;7.64;100.00
63808;BME280;49961;43.970;22.868;2023-03-03T02:21:24;101840.84;;;7.65;100.00
63808;BME280;49961;43.970;22.868;2023-03-03T02:22:51;101845.56;;;7.64;100.00
63808;BME280;49961;43.970;22.868;2023-03-03T02:24:11;101840.47;;;7.63;100.00
63808;BME280;49961;43.970;22.868;2023-03-03T02:25:20;101835.69;;;7.60;100.00
63808;BME280;49961;43.970;22.868;2023-03-03T02:26:34;101833.75;;;7.60;100.00
63808;BME280;49961;43.970;22.868;2023-03-03T02:27:35;101828.97;;;7.57;100.00
63808;BME280;49961;43.970;22.868;2023-03-03T02:28:38;101832.09;;;7.52;100.00
63808;BME280;49961;43.970;22.868;2023-03-03T02:29:38;101831.28;;;7.52;100.00
63808;BME280;49961;43.970;22.868;2023-03-03T02:30:39;101755.66;;;7.02;100.00
63808;BME280;49961;43.970;22.868;2023-03-03T02:31:40;101831.69;;;7.50;100.00
63808;BME280;49961;43.970;22.868;2023-03-03T02:32:42;101830.06;;;7.46;100.00
63808;BME280;49961;43.970;22.868;2023-03-03T02:33:44;101835.56;;;7.46;100.00
63808;BME280;49961;43.970;22.868;2023-03-03T02:34:51;101813.44;;;7.35;100.00
63808;BME280;49961;43.970;22.868;2023-03-03T02:35:52;101834.00;;;7.45;100.00
63808;BME280;49961;43.970;22.868;2023-03-03T02:36:52;101831.25;;;7.45;100.00
63808;BME280;49961;43.970;22.868;2023-03-03T02:37:55;101759.56;;;6.98;100.00
63808;BME280;49961;43.970;22.868;2023-03-03T02:39:18;101832.47;;;7.51;100.00
63808;BME280;49961;43.970;22.868;2023-03-03T02:40:20;101838.81;;;7.55;100.00
63808;BME280;49961;43.970;22.868;2023-03-03T02:42:30;101830.94;;;7.57;100.00
63808;BME280;49961;43.970;22.868;2023-03-03T02:44:47;101832.47;;;7.54;100.00
63808;BME280;49961;43.970;22.868;2023-03-03T02:45:48;101832.09;;;7.56;100.00
63808;BME280;49961;43.970;22.868;2023-03-03T02:46:49;101833.69;;;7.57;100.00
63808;BME280;49961;43.970;22.868;2023-03-03T02:47:51;101853.06;;;7.60;100.00
63808;BME280;49961;43.970;22.868;2023-03-03T02:48:51;101826.66;;;7.63;100.00
63808;BME280;49961;43.970;22.868;2023-03-03T02:49:51;101830.97;;;7.60;100.00
63808;BME280;49961;43.970;22.868;2023-03-03T02:50:52;101825.38;;;7.53;100.00
63808;BME280;49961;43.970;22.868;2023-03-03T02:51:53;101823.06;;;7.59;100.00
63808;BME280;49961;43.970;22.868;2023-03-03T02:52:54;101818.34;;;7.59;100.00
63808;BME280;49961;43.970;22.868;2023-03-03T02:53:55;101825.47;;;7.60;100.00
63808;BME280;49961;43.970;22.868;2023-03-03T02:54:55;101818.31;;;7.56;100.00
63808;BME280;49961;43.970;22.868;2023-03-03T02:55:55;101824.31;;;7.65;100.00
63808;BME280;49961;43.970;22.868;2023-03-03T02:56:57;101823.50;;;7.64;100.00
63808;BME280;49961;43.970;22.868;2023-03-03T02:57:58;101829.00;;;7.61;100.00
63808;BME280;49961;43.970;22.868;2023-03-03T02:58:59;101819.59;;;7.65;100.00
63808;BME280;49961;43.970;22.868;2023-03-03T02:59:59;101824.69;;;7.67;100.00
63808;BME280;49961;43.970;22.868;2023-03-03T03:01:00;101827.03;;;7.58;100.00
63808;BME280;49961;43.970;22.868;2023-03-03T03:02:00;101819.97;;;7.64;100.00
63808;BME280;49961;43.970;22.868;2023-03-03T03:03:01;101819.97;;;7.64;100.00
63808;BME280;49961;43.970;22.868;2023-03-03T03:04:07;101825.09;;;7.65;100.00
63808;BME280;49961;43.970;22.868;2023-03-03T03:05:08;101682.28;;;6.84;100.00
63808;BME280;49961;43.970;22.868;2023-03-03T03:06:09;101821.97;;;7.70;100.00
63808;BME280;49961;43.970;22.868;2023-03-03T03:07:09;101825.91;;;7.73;100.00
63808;BME280;49961;43.970;22.868;2023-03-03T03:08:10;101818.47;;;7.77;100.00
63808;BME280;49961;43.970;22.868;2023-03-03T03:10:31;101812.53;;;7.71;100.00
63808;BME280;49961;43.970;22.868;2023-03-03T03:11:32;101822.34;;;7.65;100.00
63808;BME280;49961;43.970;22.868;2023-03-03T03:12:34;101819.59;;;7.65;100.00
63808;BME280;49961;43.970;22.868;2023-03-03T03:13:34;101817.25;;;7.71;100.00
63808;BME280;49961;43.970;22.868;2023-03-03T03:14:35;101816.50;;;7.74;100.00
63808;BME280;49961;43.970;22.868;2023-03-03T03:15:35;101799.47;;;7.68;100.00
63808;BME280;49961;43.970;22.868;2023-03-03T03:16:36;101823.97;;;7.73;100.00
63808;BME280;49961;43.970;22.868;2023-03-03T03:17:37;101825.91;;;7.73;100.00
63808;BME280;49961;43.970;22.868;2023-03-03T03:18:38;101816.84;;;7.69;100.00
63808;BME280;49961;43.970;22.868;2023-03-03T03:19:38;101818.03;;;7.71;100.00
63808;BME280;49961;43.970;22.868;2023-03-03T03:20:39;101812.50;;;7.68;100.00
63808;BME280;49961;43.970;22.868;2023-03-03T03:21:40;101807.31;;;7.59;100.00
63808;BME280;49961;43.970;22.868;2023-03-03T03:22:41;101814.09;;;7.72;100.00
63808;BME280;49961;43.970;22.868;2023-03-03T03:23:41;101811.75;;;7.78;100.00
63808;BME280;49961;43.970;22.868;2023-03-03T03:24:42;101805.47;;;7.77;100.00
63808;BME280;49961;43.970;22.868;2023-03-03T03:25:42;101810.19;;;7.77;100.00
63808;BME280;49961;43.970;22.868;2023-03-03T03:26:46;101798.31;;;7.73;100.00
63808;BME280;49961;43.970;22.868;2023-03-03T03:27:46;101802.63;;;7.70;100.00
63808;BME280;49961;43.970;22.868;2023-03-03T03:28:47;101801.09;;;7.73;100.00
63808;BME280;49961;43.970;22.868;2023-03-03T03:29:48;101788.81;;;7.67;100.00
63808;BME280;49961;43.970;22.868;2023-03-03T03:30:50;101822.38;;;7.69;100.00
63808;BME280;49961;43.970;22.868;2023-03-03T03:31:50;101800.28;;;7.69;100.00
63808;BME280;49961;43.970;22.868;2023-03-03T03:32:51;101798.31;;;7.73;100.00
63808;BME280;49961;43.970;22.868;2023-03-03T03:33:51;101779.31;;;7.57;100.00
63808;BME280;49961;43.970;22.868;2023-03-03T03:34:52;101688.69;;;6.98;100.00
63808;BME280;49961;43.970;22.868;2023-03-03T03:35:53;101785.69;;;7.65;100.00
63808;BME280;49961;43.970;22.868;2023-03-03T03:36:54;101734.53;;;7.17;100.00
63808;BME280;49961;43.970;22.868;2023-03-03T03:37:55;101801.06;;;7.69;100.00
63808;BME280;49961;43.970;22.868;2023-03-03T03:38:55;101797.53;;;7.69;100.00
63808;BME280;49961;43.970;22.868;2023-03-03T03:39:55;101797.53;;;7.69;100.00
63808;BME280;49961;43.970;22.868;2023-03-03T03:40:56;101779.75;;;7.63;100.00
63808;BME280;49961;43.970;22.868;2023-03-03T03:41:57;101802.69;;;7.74;100.00
63808;BME280;49961;43.970;22.868;2023-03-03T03:42:57;101801.91;;;7.77;100.00
63808;BME280;49961;43.970;22.868;2023-03-03T03:43:58;101773.41;;;7.55;100.00
63808;BME280;49961;43.970;22.868;2023-03-03T03:44:58;101790.09;;;7.80;100.00
63808;BME280;49961;43.970;22.868;2023-03-03T03:45:58;101739.41;;;7.41;100.00
63808;BME280;49961;43.970;22.868;2023-03-03T03:46:59;101680.47;;;7.02;100.00
63808;BME280;49961;43.970;22.868;2023-03-03T03:47:59;101790.47;;;7.75;100.00
63808;BME280;49961;43.970;22.868;2023-03-03T03:49:00;101796.00;;;7.75;100.00
63808;BME280;49961;43.970;22.868;2023-03-03T03:50:00;101788.88;;;7.74;100.00
63808;BME280;49961;43.970;22.868;2023-03-03T03:51:01;101790.09;;;7.76;100.00
63808;BME280;49961;43.970;22.868;2023-03-03T03:52:01;101796.00;;;7.78;100.00
63808;BME280;49961;43.970;22.868;2023-03-03T03:53:02;101789.69;;;7.78;100.00
63808;BME280;49961;43.970;22.868;2023-03-03T03:54:02;101792.84;;;7.76;100.00
63808;BME280;49961;43.970;22.868;2023-03-03T03:55:03;101793.63;;;7.77;100.00
63808;BME280;49961;43.970;22.868;2023-03-03T03:56:04;101796.41;;;7.80;100.00
63808;BME280;49961;43.970;22.868;2023-03-03T03:57:05;101790.88;;;7.77;100.00
63808;BME280;49961;43.970;22.868;2023-03-03T03:58:05;101781.00;;;7.76;100.00
63808;BME280;49961;43.970;22.868;2023-03-03T03:59:06;101692.00;;;7.18;100.00
63808;BME280;49961;43.970;22.868;2023-03-03T04:00:08;101783.78;;;7.79;100.00
63808;BME280;49961;43.970;22.868;2023-03-03T04:01:09;101778.66;;;7.78;100.00
63808;BME280;49961;43.970;22.868;2023-03-03T04:02:10;101752.56;;;7.65;100.00
63808;BME280;49961;43.970;22.868;2023-03-03T04:03:10;101778.66;;;7.78;100.00
63808;BME280;49961;43.970;22.868;2023-03-03T04:04:11;101777.84;;;7.74;100.00
63808;BME280;49961;43.970;22.868;2023-03-03T04:05:11;101776.25;;;7.73;100.00
63808;BME280;49961;43.970;22.868;2023-03-03T04:06:12;101775.50;;;7.76;100.00
63808;BME280;49961;43.970;22.868;2023-03-03T04:07:12;101774.25;;;7.66;100.00
63808;BME280;49961;43.970;22.868;2023-03-03T04:08:13;101781.00;;;7.72;100.00
63808;BME280;49961;43.970;22.868;2023-03-03T04:09:14;101779.00;;;7.73;100.00
63808;BME280;49961;43.970;22.868;2023-03-03T04:10:14;101663.13;;;7.01;100.00
63808;BME280;49961;43.970;22.868;2023-03-03T04:11:16;101775.47;;;7.72;100.00
63808;BME280;49961;43.970;22.868;2023-03-03T04:12:17;101776.66;;;7.71;100.00
63808;BME280;49961;43.970;22.868;2023-03-03T04:13:17;101785.31;;;7.70;100.00
63808;BME280;49961;43.970;22.868;2023-03-03T04:14:18;101771.91;;;7.68;100.00
63808;BME280;49961;43.970;22.868;2023-03-03T04:15:18;101777.41;;;7.68;100.00
63808;BME280;49961;43.970;22.868;2023-03-03T04:16:19;101793.19;;;7.68;100.00
63808;BME280;49961;43.970;22.868;2023-03-03T04:17:22;101771.50;;;7.66;100.00
63808;BME280;49961;43.970;22.868;2023-03-03T04:18:24;101773.47;;;7.66;100.00
63808;BME280;49961;43.970;22.868;2023-03-03T04:19:24;101771.06;;;7.61;100.00
63808;BME280;49961;43.970;22.868;2023-03-03T04:20:25;101778.13;;;7.55;100.00
63808;BME280;49961;43.970;22.868;2023-03-03T04:21:25;101773.41;;;7.59;100.00
63808;BME280;49961;43.970;22.868;2023-03-03T04:22:27;101773.03;;;7.60;100.00
63808;BME280;49961;43.970;22.868;2023-03-03T04:23:27;101774.19;;;7.56;100.00
63808;BME280;49961;43.970;22.868;2023-03-03T04:24:28;101775.38;;;7.55;100.00
63808;BME280;49961;43.970;22.868;2023-03-03T04:25:28;101779.69;;;7.56;100.00
63808;BME280;49961;43.970;22.868;2023-03-03T04:26:28;101776.16;;;7.55;100.00
63808;BME280;49961;43.970;22.868;2023-03-03T04:27:34;101776.19;;;7.59;100.00
63808;BME280;49961;43.970;22.868;2023-03-03T04:28:35;101784.47;;;7.62;100.00
63808;BME280;49961;43.970;22.868;2023-03-03T04:29:35;101780.13;;;7.61;100.00
63808;BME280;49961;43.970;22.868;2023-03-03T04:30:35;101765.91;;;7.59;100.00
63808;BME280;49961;43.970;22.868;2023-03-03T04:31:36;101599.34;;;6.49;100.00
63808;BME280;49961;43.970;22.868;2023-03-03T04:32:36;101776.19;;;7.62;100.00
63808;BME280;49961;43.970;22.868;2023-03-03T04:33:37;101759.63;;;7.55;100.00
63808;BME280;49961;43.970;22.868;2023-03-03T04:34:37;101631.72;;;6.62;100.00
63808;BME280;49961;43.970;22.868;2023-03-03T04:35:38;101744.16;;;7.40;100.00
63808;BME280;49961;43.970;22.868;2023-03-03T04:36:38;101632.19;;;6.71;100.00
63808;BME280;49961;43.970;22.868;2023-03-03T04:37:39;101760.38;;;7.52;100.00
63808;BME280;49961;43.970;22.868;2023-03-03T04:38:39;101770.25;;;7.57;100.00
63808;BME280;49961;43.970;22.868;2023-03-03T04:39:40;101724.28;;;7.21;100.00
63808;BME280;49961;43.970;22.868;2023-03-03T04:40:40;101768.28;;;7.57;100.00
63808;BME280;49961;43.970;22.868;2023-03-03T04:41:41;101657.88;;;6.86;100.00
63808;BME280;49961;43.970;22.868;2023-03-03T04:42:41;101765.50;;;7.54;100.00
63808;BME280;49961;43.970;22.868;2023-03-03T04:43:42;101772.97;;;7.53;100.00
63808;BME280;49961;43.970;22.868;2023-03-03T04:44:43;101767.44;;;7.50;100.00
63808;BME280;49961;43.970;22.868;2023-03-03T04:45:43;101768.63;;;7.49;100.00
63808;BME280;49961;43.970;22.868;2023-03-03T04:46:44;101778.47;;;7.50;100.00
63808;BME280;49961;43.970;22.868;2023-03-03T04:47:44;101766.25;;;7.51;100.00
63808;BME280;49961;43.970;22.868;2023-03-03T04:48:44;101763.13;;;7.52;100.00
63808;BME280;49961;43.970;22.868;2023-03-03T04:49:45;101766.69;;;7.53;100.00
63808;BME280;49961;43.970;22.868;2023-03-03T04:50:45;101771.41;;;7.56;100.00
63808;BME280;49961;43.970;22.868;2023-03-03T04:51:46;101764.72;;;7.57;100.00
63808;BME280;49961;43.970;22.868;2023-03-03T04:52:46;101771.41;;;7.56;100.00
63808;BME280;49961;43.970;22.868;2023-03-03T04:53:47;101771.41;;;7.52;100.00
63808;BME280;49961;43.970;22.868;2023-03-03T04:54:47;101772.97;;;7.53;100.00
63808;BME280;49961;43.970;22.868;2023-03-03T04:55:52;101767.44;;;7.50;100.00
63808;BME280;49961;43.970;22.868;2023-03-03T04:56:52;101755.59;;;7.49;100.00
63808;BME280;49961;43.970;22.868;2023-03-03T04:57:53;101776.19;;;7.59;100.00
63808;BME280;49961;43.970;22.868;2023-03-03T04:58:53;101742.97;;;7.45;100.00
63808;BME280;49961;43.970;22.868;2023-03-03T04:59:54;101668.19;;;6.96;100.00
63808;BME280;49961;43.970;22.868;2023-03-03T05:00:56;101771.06;;;7.61;100.00
63808;BME280;49961;43.970;22.868;2023-03-03T05:01:57;101768.31;;;7.61;100.00
63808;BME280;49961;43.970;22.868;2023-03-03T05:02:57;101759.19;;;7.53;100.00
63808;BME280;49961;43.970;22.868;2023-03-03T05:03:58;101775.41;;;7.62;100.00
63808;BME280;49961;43.970;22.868;2023-03-03T05:04:59;101776.22;;;7.69;100.00
63808;BME280;49961;43.970;22.868;2023-03-03T05:05:59;101773.47;;;7.69;100.00
63808;BME280;49961;43.970;22.868;2023-03-03T05:07:00;101777.03;;;7.70;100.00
63808;BME280;49961;43.970;22.868;2023-03-03T05:08:00;101770.72;;;7.73;100.00
63808;BME280;49961;43.970;22.868;2023-03-03T05:09:00;101769.94;;;7.69;100.00
63808;BME280;49961;43.970;22.868;2023-03-03T05:10:01;101775.84;;;7.67;100.00
63808;BME280;49961;43.970;22.868;2023-03-03T05:11:02;101768.75;;;7.70;100.00
63808;BME280;49961;43.970;22.868;2023-03-03T05:12:03;101770.72;;;7.69;100.00
63808;BME280;49961;43.970;22.868;2023-03-03T05:13:03;101763.63;;;7.68;100.00
63808;BME280;49961;43.970;22.868;2023-03-03T05:14:04;101729.56;;;7.43;100.00
63808;BME280;49961;43.970;22.868;2023-03-03T05:15:05;101792.78;;;7.69;100.00
63808;BME280;49961;43.970;22.868;2023-03-03T05:16:06;101765.19;;;7.69;100.00
63808;BME280;49961;43.970;22.868;2023-03-03T05:17:06;101769.13;;;7.68;100.00
63808;BME280;49961;43.970;22.868;2023-03-03T05:18:07;101738.28;;;7.49;100.00
63808;BME280;49961;43.970;22.868;2023-03-03T05:19:08;101764.41;;;7.65;100.00
63808;BME280;49961;43.970;22.868;2023-03-03T05:20:09;101753.28;;;7.55;100.00
63808;BME280;49961;43.970;22.868;2023-03-03T05:21:11;101662.28;;;6.94;100.00
63808;BME280;49961;43.970;22.868;2023-03-03T05:22:11;101774.19;;;7.56;100.00
63808;BME280;49961;43.970;22.868;2023-03-03T05:23:12;101769.03;;;7.54;100.00
63808;BME280;49961;43.970;22.868;2023-03-03T05:24:13;101772.22;;;7.53;100.00
63808;BME280;49961;43.970;22.868;2023-03-03T05:25:13;101769.44;;;7.53;100.00
63808;BME280;49961;43.970;22.868;2023-03-03T05:26:13;101749.59;;;7.37;100.00
63808;BME280;49961;43.970;22.868;2023-03-03T05:27:15;101775.69;;;7.43;100.00
63808;BME280;49961;43.970;22.868;2023-03-03T05:28:16;101774.03;;;7.35;100.00
63808;BME280;49961;43.970;22.868;2023-03-03T05:29:17;101749.78;;;7.07;100.00
63808;BME280;49961;43.970;22.868;2023-03-03T05:30:17;101768.44;;;7.24;100.00
63808;BME280;49961;43.970;22.868;2023-03-03T05:31:18;101771.59;;;7.26;100.00
63808;BME280;49961;43.970;22.868;2023-03-03T05:32:18;101775.19;;;7.30;100.00